createdAt,value
2023-01-11T00:01:56.659Z,4.57
2023-01-11T00:04:30.392Z,1.13
2023-01-11T00:06:57.603Z,1.37
2023-01-11T00:09:24.232Z,1.07
2023-01-11T00:11:50.865Z,2.70
2023-01-11T00:14:17.612Z,1.00
2023-01-11T00:16:44.198Z,1.23
2023-01-11T00:19:10.804Z,3.00
2023-01-11T00:21:37.329Z,2.27
2023-01-11T00:24:06.488Z,1.87
2023-01-11T00:26:33.476Z,1.67
2023-01-11T00:29:00.141Z,1.53
2023-01-11T00:31:26.857Z,0.87
2023-01-11T00:33:53.465Z,1.50
2023-01-11T00:36:20.395Z,1.67
2023-01-11T00:38:51.493Z,4.00
2023-01-11T00:41:37.832Z,1.93
2023-01-11T00:44:24.243Z,1.53
2023-01-11T00:47:10.609Z,1.70
2023-01-11T00:49:37.417Z,0.50
2023-01-11T00:52:09.427Z,0.80
2023-01-11T00:54:40.571Z,0.97
2023-01-11T00:57:08.259Z,1.63
2023-01-11T00:59:36.001Z,4.80
2023-01-11T01:02:04.139Z,1.00
2023-01-11T01:04:31.223Z,1.00
2023-01-11T01:06:57.872Z,2.00
2023-01-11T01:09:24.544Z,1.33
2023-01-11T01:11:51.098Z,0.67
2023-01-11T01:14:26.820Z,2.13
2023-01-11T01:16:55.366Z,0.87
2023-01-11T01:19:22.687Z,1.40
2023-01-11T01:21:50.728Z,1.67
2023-01-11T01:24:17.479Z,0.70
2023-01-11T01:26:44.031Z,1.13
2023-01-11T01:29:11.821Z,1.17
2023-01-11T01:31:38.880Z,1.40
2023-01-11T01:34:06.624Z,1.60
2023-01-11T01:36:33.720Z,1.53
2023-01-11T01:39:01.355Z,1.90
2023-01-11T01:41:28.640Z,0.87
2023-01-11T01:43:55.197Z,1.17
2023-01-11T01:46:26.813Z,0.73
2023-01-11T01:48:56.352Z,3.07
2023-01-11T01:51:30.026Z,2.63
2023-01-11T01:54:01.933Z,0.80
2023-01-11T01:56:37.791Z,1.47
2023-01-11T01:59:12.845Z,1.03
2023-01-11T02:01:49.879Z,1.00
2023-01-11T02:04:22.398Z,0.77
2023-01-11T02:06:50.444Z,1.03
2023-01-11T02:09:26.583Z,1.47
2023-01-11T02:11:56.737Z,1.27
2023-01-11T02:14:24.370Z,2.07
2023-01-11T02:16:50.961Z,1.97
2023-01-11T02:19:55.703Z,1.27
2023-01-11T02:22:57.360Z,0.93
2023-01-11T02:26:01.472Z,1.27
2023-01-11T02:28:54.828Z,0.90
2023-01-11T02:31:34.054Z,2.53
2023-01-11T02:34:03.293Z,1.47
2023-01-11T02:36:44.942Z,1.00
2023-01-11T02:39:40.471Z,2.10
2023-01-11T02:42:35.448Z,0.90
2023-01-11T02:45:32.528Z,1.23
2023-01-11T02:48:22.331Z,1.00
2023-01-11T02:51:02.536Z,0.90
2023-01-11T02:53:44.898Z,1.30
2023-01-11T02:56:20.229Z,1.30
2023-01-11T02:58:50.662Z,3.23
2023-01-11T03:01:19.640Z,1.77
2023-01-11T03:03:46.283Z,1.03
2023-01-11T03:06:20.817Z,0.90
2023-01-11T03:09:00.251Z,1.13
2023-01-11T03:11:54.491Z,2.73
2023-01-11T03:14:36.388Z,1.87
2023-01-11T03:17:25.237Z,1.60
2023-01-11T03:19:59.953Z,1.63
2023-01-11T03:22:39.283Z,1.93
2023-01-11T03:25:47.479Z,0.87
2023-01-11T03:28:19.866Z,2.20
2023-01-11T03:31:14.432Z,1.67
2023-01-11T03:33:56.313Z,2.10
2023-01-11T03:36:44.673Z,1.67
2023-01-11T03:39:27.967Z,1.17
2023-01-11T03:41:58.223Z,2.43
2023-01-11T03:44:28.287Z,3.43
2023-01-11T03:47:08.906Z,1.30
2023-01-11T03:49:53.735Z,1.67
2023-01-11T03:52:25.725Z,1.50
2023-01-11T03:54:54.307Z,1.30
2023-01-11T03:57:24.164Z,1.40
2023-01-11T03:59:50.963Z,1.43
2023-01-11T04:02:41.109Z,2.50
2023-01-11T04:05:10.401Z,3.10
2023-01-11T04:07:37.196Z,2.53
2023-01-11T04:10:04.509Z,1.67
2023-01-11T04:12:31.048Z,1.80
2023-01-11T04:14:57.612Z,1.73
2023-01-11T04:17:24.177Z,2.10
2023-01-11T04:19:50.696Z,1.80
2023-01-11T04:22:17.289Z,2.77
2023-01-11T04:24:44.100Z,2.20
2023-01-11T04:27:10.666Z,2.57
2023-01-11T04:29:37.192Z,3.03
2023-01-11T04:32:05.377Z,1.50
2023-01-11T04:34:31.900Z,2.23
2023-01-11T04:36:58.522Z,2.27
2023-01-11T04:39:25.062Z,1.73
2023-01-11T04:42:10.427Z,2.63
2023-01-11T04:44:36.979Z,1.60
2023-01-11T04:47:03.582Z,4.00
2023-01-11T04:49:30.157Z,2.20
2023-01-11T04:51:56.681Z,2.57
2023-01-11T04:54:23.255Z,2.23
2023-01-11T04:56:49.815Z,3.00
2023-01-11T04:59:18.436Z,2.10
2023-01-11T05:01:45.565Z,2.07
2023-01-11T05:04:13.596Z,5.07
2023-01-11T05:06:40.418Z,2.83
2023-01-11T05:09:12.147Z,4.27
2023-01-11T05:11:38.835Z,3.20
2023-01-11T05:14:05.413Z,4.77
2023-01-11T05:16:32.039Z,3.30
2023-01-11T05:19:03.302Z,2.60
2023-01-11T05:21:32.574Z,4.00
2023-01-11T05:24:01.194Z,4.20
2023-01-11T05:26:32.665Z,4.47
2023-01-11T05:29:04.326Z,7.60
2023-01-11T05:31:32.085Z,3.67
2023-01-11T05:33:59.153Z,4.27
2023-01-11T05:36:27.077Z,3.00
2023-01-11T05:38:55.245Z,2.10
2023-01-11T05:41:24.553Z,3.83
2023-01-11T05:44:11.058Z,3.90
2023-01-11T05:46:39.420Z,4.60
2023-01-11T05:49:07.288Z,3.40
2023-01-11T05:51:34.336Z,3.57
2023-01-11T05:54:02.210Z,4.27
2023-01-11T05:56:29.051Z,4.00
2023-01-11T05:58:55.839Z,1.93
2023-01-11T06:01:24.139Z,3.50
2023-01-11T06:03:51.328Z,2.60
2023-01-11T06:06:19.539Z,2.60
2023-01-11T06:08:47.485Z,2.00
2023-01-11T06:11:15.048Z,1.90
2023-01-11T06:13:42.291Z,4.33
2023-01-11T06:16:15.004Z,4.20
2023-01-11T06:18:44.822Z,4.87
2023-01-11T06:21:12.363Z,6.40
2023-01-11T06:23:42.107Z,4.63
2023-01-11T06:26:11.328Z,3.13
2023-01-11T06:28:38.850Z,6.10
2023-01-11T06:31:06.559Z,3.30
2023-01-11T06:33:33.620Z,3.70
2023-01-11T06:36:07.915Z,3.30
2023-01-11T06:38:35.009Z,4.67
2023-01-11T06:41:03.437Z,4.63
2023-01-11T06:43:31.162Z,5.03
2023-01-11T06:45:58.966Z,5.90
2023-01-11T06:48:26.408Z,4.40
2023-01-11T06:50:55.119Z,2.00
2023-01-11T06:53:22.488Z,1.93
2023-01-11T06:55:56.165Z,1.60
2023-01-11T06:58:23.949Z,1.70
2023-01-11T07:00:52.604Z,1.87
2023-01-11T07:03:20.650Z,0.93
2023-01-11T07:05:47.458Z,2.97
2023-01-11T07:08:14.031Z,1.13
2023-01-11T07:10:44.113Z,1.40
2023-01-11T07:13:19.209Z,1.00
2023-01-11T07:15:54.004Z,1.10
2023-01-11T07:18:20.927Z,3.80
2023-01-11T07:20:47.758Z,1.70
2023-01-11T07:23:14.702Z,1.20
2023-01-11T07:25:41.502Z,1.10
2023-01-11T07:28:09.284Z,3.00
2023-01-11T07:30:55.426Z,1.17
2023-01-11T07:33:23.976Z,1.13
2023-01-11T07:35:50.566Z,2.47
2023-01-11T07:38:19.685Z,1.70
2023-01-11T07:40:46.320Z,1.90
2023-01-11T07:43:19.451Z,1.77
2023-01-11T07:45:50.252Z,11.13
2023-01-11T07:48:24.719Z,6.53
2023-01-11T07:50:52.606Z,11.70
2023-01-11T07:53:19.253Z,6.57
2023-01-11T07:55:47.250Z,3.80
2023-01-11T07:58:15.155Z,3.83
2023-01-11T08:00:41.948Z,8.80
2023-01-11T08:03:09.723Z,5.27
2023-01-11T08:05:36.723Z,8.87
2023-01-11T08:08:04.066Z,4.00
2023-01-11T08:10:30.690Z,8.43
2023-01-11T08:13:16.270Z,4.60
2023-01-11T08:15:42.951Z,5.53
2023-01-11T08:18:11.656Z,5.10
2023-01-11T08:20:39.135Z,5.00
2023-01-11T08:23:08.671Z,6.30
2023-01-11T08:25:35.874Z,8.23
2023-01-11T08:28:04.604Z,4.50
2023-01-11T08:30:31.198Z,7.10
2023-01-11T08:33:00.604Z,9.67
2023-01-11T08:35:30.431Z,12.97
2023-01-11T08:37:57.016Z,9.67
2023-01-11T08:40:25.564Z,14.97
2023-01-11T08:42:56.738Z,17.40
2023-01-11T08:45:23.390Z,12.53
2023-01-11T08:47:51.436Z,11.80
2023-01-11T08:50:18.790Z,20.07
2023-01-11T08:52:46.246Z,21.40
2023-01-11T08:55:12.866Z,21.13
2023-01-11T08:57:39.396Z,17.93
2023-01-11T09:00:07.677Z,17.30
2023-01-11T09:02:34.339Z,15.27
2023-01-11T09:05:00.845Z,14.47
2023-01-11T09:07:27.418Z,16.27
2023-01-11T09:09:53.923Z,21.27
2023-01-11T09:12:20.467Z,15.13
2023-01-11T09:14:46.995Z,16.90
2023-01-11T09:17:13.517Z,19.53
2023-01-11T09:19:40.045Z,20.43
2023-01-11T09:22:06.581Z,19.80
2023-01-11T09:24:33.136Z,19.73
2023-01-11T09:27:00.447Z,20.83
2023-01-11T09:29:27.166Z,22.13
2023-01-11T09:31:53.820Z,28.57
2023-01-11T09:34:21.139Z,22.13
2023-01-11T09:36:49.222Z,23.93
2023-01-11T09:39:18.787Z,16.70
2023-01-11T09:42:11.162Z,20.73
2023-01-11T09:44:49.923Z,28.47
2023-01-11T09:47:41.060Z,30.57
2023-01-11T09:50:28.075Z,22.50
2023-01-11T09:53:03.319Z,23.07
2023-01-11T09:55:37.234Z,19.17
2023-01-11T09:58:12.917Z,23.00
2023-01-11T10:01:01.160Z,27.50
2023-01-11T10:03:45.904Z,29.07
2023-01-11T10:06:21.249Z,17.90
2023-01-11T10:18:32.240Z,24.83
2023-01-11T10:19:17.073Z,29.83
2023-01-11T10:21:42.720Z,20.47
2023-01-11T10:24:23.354Z,34.73
2023-01-11T10:26:53.061Z,21.07
2023-01-11T10:29:53.231Z,22.33
2023-01-11T10:32:50.457Z,22.27
2023-01-11T10:35:47.963Z,20.60
2023-01-11T10:38:56.864Z,16.83
2023-01-11T10:41:34.253Z,16.07
2023-01-11T10:44:10.141Z,15.73
2023-01-11T10:46:41.586Z,15.97
2023-01-11T10:49:33.745Z,17.37
2023-01-11T10:52:22.437Z,23.70
2023-01-11T10:54:54.792Z,17.13
2023-01-11T10:58:01.275Z,20.17
2023-01-11T11:01:17.301Z,20.03
2023-01-11T11:03:58.319Z,18.17
2023-01-11T11:06:53.994Z,12.83
2023-01-11T11:09:20.577Z,15.50
2023-01-11T11:11:54.421Z,15.20
2023-01-11T11:14:30.813Z,16.17
2023-01-11T11:17:23.877Z,16.23
2023-01-11T11:19:51.502Z,14.07
2023-01-11T11:22:18.862Z,25.93
2023-01-11T11:24:54.909Z,10.97
2023-01-11T11:27:33.604Z,18.03
2023-01-11T11:30:00.259Z,14.73
2023-01-11T11:32:31.530Z,11.63
2023-01-11T11:34:58.745Z,18.03
2023-01-11T11:37:27.476Z,11.37
2023-01-11T11:39:54.510Z,15.77
2023-01-11T11:42:22.011Z,17.87
2023-01-11T11:45:11.013Z,13.43
2023-01-11T11:47:38.285Z,17.60
2023-01-11T11:50:37.026Z,13.70
2023-01-11T11:53:07.109Z,15.70
2023-01-11T11:55:35.110Z,13.07
2023-01-11T11:58:08.634Z,17.13
2023-01-11T12:00:44.348Z,17.40
2023-01-11T12:03:17.563Z,13.37
2023-01-11T12:06:00.795Z,14.03
2023-01-11T12:08:29.710Z,13.43
2023-01-11T12:11:02.845Z,13.50
2023-01-11T12:13:38.243Z,9.40
2023-01-11T12:16:21.070Z,12.40
2023-01-11T12:18:47.885Z,12.27
2023-01-11T12:21:22.000Z,12.27
2023-01-11T12:24:16.716Z,9.67
2023-01-11T12:27:08.349Z,7.67
2023-01-11T12:29:49.920Z,14.03
2023-01-11T12:32:37.643Z,11.60
2023-01-11T12:35:34.967Z,17.77
2023-01-11T12:38:24.719Z,13.47
2023-01-11T12:41:01.612Z,11.07
2023-01-11T12:43:48.170Z,13.77
2023-01-11T12:46:25.164Z,14.10
2023-01-11T12:48:57.734Z,10.73
2023-01-11T12:51:40.200Z,13.57
2023-01-11T12:54:25.784Z,12.17
2023-01-11T12:57:14.300Z,13.83
2023-01-11T13:00:07.474Z,16.40
2023-01-11T13:03:21.547Z,11.73
2023-01-11T13:06:06.717Z,17.10
2023-01-11T13:09:02.681Z,17.30
2023-01-11T13:11:58.799Z,16.90
2023-01-11T13:14:53.980Z,13.93
2023-01-11T13:17:28.031Z,16.80
2023-01-11T13:20:14.841Z,14.90
2023-01-11T13:22:49.613Z,13.63
2023-01-11T13:25:24.839Z,15.73
2023-01-11T13:27:54.596Z,17.37
2023-01-11T13:30:25.711Z,11.63
2023-01-11T13:33:00.522Z,11.47
2023-01-11T13:35:58.040Z,16.73
2023-01-11T13:38:58.461Z,12.83
2023-01-11T13:41:35.207Z,12.83
2023-01-11T13:44:15.460Z,15.97
2023-01-11T13:47:12.122Z,20.00
2023-01-11T13:49:48.284Z,12.03
2023-01-11T13:52:20.672Z,14.73
2023-01-11T13:55:25.292Z,12.57
2023-01-11T13:58:13.835Z,13.83
2023-01-11T14:00:55.388Z,14.97
2023-01-11T14:03:49.857Z,11.30
2023-01-11T14:06:42.760Z,13.50
2023-01-11T14:09:28.145Z,17.40
2023-01-11T14:13:00.079Z,18.00
2023-01-11T14:15:47.893Z,13.87
2023-01-11T14:18:14.514Z,14.37
2023-01-11T14:20:51.190Z,14.60
2023-01-11T14:23:28.006Z,8.80
2023-01-11T14:26:13.201Z,14.17
2023-01-11T14:28:48.865Z,14.60
2023-01-11T14:31:49.560Z,17.40
2023-01-11T14:34:40.460Z,20.03
2023-01-11T14:37:12.999Z,19.27
2023-01-11T14:40:16.982Z,13.20
2023-01-11T14:43:14.762Z,15.07
2023-01-11T14:46:06.535Z,10.53
2023-01-11T14:48:54.915Z,10.97
2023-01-11T14:51:33.366Z,15.43
2023-01-11T14:54:16.911Z,10.40
2023-01-11T14:56:43.469Z,14.73
2023-01-11T14:59:31.592Z,12.70
2023-01-11T15:02:04.371Z,10.73
2023-01-11T15:04:39.047Z,9.80
2023-01-11T15:07:35.550Z,12.87
2023-01-11T15:10:25.276Z,16.87
2023-01-11T15:12:56.166Z,15.80
2023-01-11T15:15:47.146Z,12.90
2023-01-11T15:18:18.440Z,14.80
2023-01-11T15:20:53.472Z,12.27
2023-01-11T15:23:21.154Z,13.23
2023-01-11T15:25:49.465Z,12.90
2023-01-11T15:28:57.215Z,14.43
2023-01-11T15:31:39.233Z,12.67
2023-01-11T15:34:18.383Z,16.93
2023-01-11T15:37:02.363Z,14.50
2023-01-11T15:39:47.497Z,15.47
2023-01-11T15:42:17.175Z,16.50
2023-01-11T15:45:20.742Z,14.77
2023-01-11T15:48:01.079Z,13.53
2023-01-11T15:50:30.553Z,12.50
2023-01-11T15:53:42.766Z,12.23
2023-01-11T15:56:35.152Z,12.43
2023-01-11T15:59:14.193Z,16.37
2023-01-11T16:02:29.733Z,10.13
2023-01-11T16:05:18.469Z,16.73
2023-01-11T16:07:54.525Z,13.40
2023-01-11T16:10:42.847Z,15.43
2023-01-11T16:13:41.858Z,13.73
2023-01-11T16:16:22.291Z,16.70
2023-01-11T16:18:55.450Z,12.33
2023-01-11T16:21:34.862Z,17.60
2023-01-11T16:24:07.316Z,13.20
2023-01-11T16:26:37.035Z,15.10
2023-01-11T16:29:12.858Z,14.30
2023-01-11T16:31:54.593Z,14.83
2023-01-11T16:34:21.564Z,21.33
2023-01-11T16:36:49.274Z,14.47
2023-01-11T16:39:21.853Z,9.80
2023-01-11T16:42:03.299Z,17.93
2023-01-11T16:44:41.159Z,15.20
2023-01-11T16:47:12.227Z,18.47
2023-01-11T16:49:40.994Z,17.50
2023-01-11T16:52:34.777Z,11.90
2023-01-11T16:55:04.321Z,8.43
2023-01-11T16:57:36.372Z,15.43
2023-01-11T17:00:18.837Z,14.23
2023-01-11T17:02:48.904Z,13.17
2023-01-11T17:05:23.995Z,10.73
2023-01-11T17:07:50.723Z,15.63
2023-01-11T17:10:23.502Z,12.57
2023-01-11T17:13:39.958Z,11.00
2023-01-11T17:16:13.559Z,8.73
2023-01-11T17:18:41.624Z,16.93
2023-01-11T17:21:24.945Z,11.93
2023-01-11T17:23:54.912Z,10.67
2023-01-11T17:26:25.647Z,8.73
2023-01-11T17:28:57.307Z,10.77
2023-01-11T17:31:32.217Z,12.13
2023-01-11T17:34:02.086Z,8.83
2023-01-11T17:36:29.365Z,13.03
2023-01-11T17:38:58.108Z,9.23
2023-01-11T17:41:46.419Z,11.30
2023-01-11T17:44:38.251Z,13.50
2023-01-11T17:47:08.591Z,15.60
2023-01-11T17:49:36.780Z,15.33
2023-01-11T17:52:38.982Z,16.23
2023-01-11T17:55:10.213Z,14.33
2023-01-11T17:57:36.737Z,13.70
2023-01-11T18:00:38.945Z,13.23
2023-01-11T18:03:10.675Z,17.57
2023-01-11T18:05:37.649Z,22.87
2023-01-11T18:08:09.632Z,25.07
2023-01-11T18:10:40.079Z,16.10
2023-01-11T18:13:20.017Z,17.17
2023-01-11T18:15:47.418Z,16.40
2023-01-11T18:18:38.772Z,15.10
2023-01-11T18:21:25.300Z,16.13
2023-01-11T18:24:10.521Z,10.97
2023-01-11T18:26:39.816Z,13.93
2023-01-11T18:29:17.324Z,15.30
2023-01-11T18:31:43.861Z,17.37
2023-01-11T18:34:13.475Z,15.83
2023-01-11T18:36:39.972Z,12.00
2023-01-11T18:39:11.256Z,11.87
2023-01-11T18:41:57.553Z,13.17
2023-01-11T18:44:25.122Z,15.33
2023-01-11T18:46:51.779Z,11.30
2023-01-11T18:49:18.296Z,15.83
2023-01-11T18:51:45.355Z,18.73
2023-01-11T18:54:16.565Z,17.30
2023-01-11T18:56:43.325Z,28.80
2023-01-11T18:59:10.370Z,23.77
2023-01-11T19:01:52.648Z,16.20
2023-01-11T19:04:24.859Z,18.43
2023-01-11T19:06:52.473Z,24.80
2023-01-11T19:09:19.082Z,13.80
2023-01-11T19:11:47.060Z,14.43
2023-01-11T19:14:13.698Z,16.63
2023-01-11T19:16:40.307Z,16.97
2023-01-11T19:19:06.990Z,16.60
2023-01-11T19:21:33.540Z,20.77
2023-01-11T19:24:00.199Z,13.87
2023-01-11T19:26:27.846Z,14.97
2023-01-11T19:28:54.529Z,15.17
2023-01-11T19:31:21.132Z,11.33
2023-01-11T19:33:47.815Z,16.23
2023-01-11T19:36:14.383Z,12.93
2023-01-11T19:38:40.955Z,8.33
2023-01-11T19:41:16.050Z,15.30
2023-01-11T19:43:47.320Z,19.00
2023-01-11T19:46:19.532Z,23.47
2023-01-11T19:48:52.464Z,16.07
2023-01-11T19:51:28.184Z,18.37
2023-01-11T19:53:57.175Z,16.30
2023-01-11T19:56:26.725Z,20.43
2023-01-11T19:58:53.315Z,14.70
2023-01-11T20:01:20.001Z,17.07
2023-01-11T20:03:46.676Z,20.93
2023-01-11T20:06:13.190Z,17.90
2023-01-11T20:08:41.195Z,16.77
2023-01-11T20:11:10.769Z,13.90
2023-01-11T20:13:38.130Z,18.83
2023-01-11T20:16:11.044Z,21.53
2023-01-11T20:18:37.736Z,14.67
2023-01-11T20:21:07.417Z,14.90
2023-01-11T20:23:36.005Z,9.63
2023-01-11T20:26:05.434Z,20.33
2023-01-11T20:28:35.549Z,15.43
2023-01-11T20:31:06.528Z,14.57
2023-01-11T20:33:33.077Z,17.40
2023-01-11T20:35:59.627Z,18.17
2023-01-11T20:38:26.202Z,19.97
2023-01-11T20:40:53.282Z,15.77
2023-01-11T20:43:22.173Z,13.27
2023-01-11T20:46:05.260Z,15.57
2023-01-11T20:48:34.108Z,11.93
2023-01-11T20:51:01.099Z,13.73
2023-01-11T20:53:27.847Z,14.00
2023-01-11T20:55:54.955Z,13.00
2023-01-11T20:58:22.266Z,13.23
2023-01-11T21:00:48.973Z,12.00
2023-01-11T21:03:15.688Z,14.77
2023-01-11T21:05:42.338Z,14.97
2023-01-11T21:08:11.597Z,11.50
2023-01-11T21:10:38.289Z,18.10
2023-01-11T21:13:04.908Z,16.57
2023-01-11T21:15:31.498Z,18.30
2023-01-11T21:18:01.078Z,23.57
2023-01-11T21:20:31.198Z,15.67
2023-01-11T21:23:00.935Z,14.13
2023-01-11T21:25:28.304Z,13.43
2023-01-11T21:28:06.096Z,21.67
2023-01-11T21:30:32.908Z,14.30
2023-01-11T21:33:01.711Z,13.40
2023-01-11T21:35:28.332Z,15.47
2023-01-11T21:37:55.379Z,17.87
2023-01-11T21:40:32.647Z,15.53
2023-01-11T21:42:59.341Z,14.10
2023-01-11T21:45:29.192Z,17.23
2023-01-11T21:47:55.800Z,11.70
2023-01-11T21:50:25.184Z,13.83
2023-01-11T21:52:56.371Z,13.00
2023-01-11T21:55:23.024Z,15.37
2023-01-11T21:57:51.721Z,13.27
2023-01-11T22:00:18.981Z,10.90
2023-01-11T22:02:45.514Z,14.43
2023-01-11T22:05:14.943Z,17.10
2023-01-11T22:07:44.272Z,14.27
2023-01-11T22:10:15.078Z,9.77
2023-01-11T22:12:41.960Z,13.13
2023-01-11T22:15:11.706Z,12.83
2023-01-11T22:17:38.174Z,12.57
2023-01-11T22:20:05.300Z,13.60
2023-01-11T22:22:32.016Z,11.67
2023-01-11T22:24:58.659Z,12.30
2023-01-11T22:27:25.332Z,11.40
2023-01-11T22:29:52.318Z,14.87
2023-01-11T22:32:18.903Z,10.87
2023-01-11T22:34:45.637Z,12.23
2023-01-11T22:37:12.209Z,10.40
2023-01-11T22:39:40.554Z,12.17
2023-01-11T22:42:07.492Z,12.07
2023-01-11T22:44:34.091Z,10.03
2023-01-11T22:47:01.400Z,11.33
2023-01-11T22:49:27.940Z,9.63
2023-01-11T22:51:54.525Z,14.43
2023-01-11T22:54:21.198Z,13.70
2023-01-11T22:56:47.828Z,13.47
2023-01-11T22:59:14.384Z,19.00
2023-01-11T23:01:43.204Z,13.63
2023-01-11T23:04:13.457Z,14.27
2023-01-11T23:06:42.205Z,15.67
2023-01-11T23:09:22.523Z,10.23
2023-01-11T23:12:09.452Z,14.43
2023-01-11T23:14:36.322Z,16.33
2023-01-11T23:20:20.785Z,13.93
2023-01-11T23:22:52.735Z,13.53
2023-01-11T23:25:22.424Z,14.27
2023-01-11T23:27:49.023Z,18.00
2023-01-11T23:30:19.115Z,10.20
2023-01-11T23:32:46.675Z,16.43
2023-01-11T23:35:13.385Z,12.83
2023-01-11T23:37:40.022Z,18.20
2023-01-11T23:40:07.373Z,13.03
2023-01-11T23:42:35.570Z,16.20
2023-01-11T23:45:02.185Z,10.23
2023-01-11T23:47:31.513Z,14.07
2023-01-11T23:50:01.024Z,12.53
2023-01-11T23:52:31.683Z,12.77
2023-01-11T23:54:58.389Z,12.87
2023-01-11T23:57:26.133Z,16.10
2023-01-11T23:59:52.661Z,16.10
